Rankin Inlet, Canada
Current Conditions -  °F | °C
As of 3:00 AM on Friday 31 Oct 2014 (Local Time) from CYRT Reporting Station
Ice Pellets Ice Pellets  
Wind Chill: -14°   Ceiling: Unl
Heat Index: -2°   Visibility: 15mi
Dew Point: -8°   Wind: 6mph
Humidity: 78%   Direction: 310°NW
Pressure: 30.2"   Gusts: NA
Location:  62.81°N, 92.08°W
Report Text: CYRT 310800Z 31005KT 15SM IC SCT250 M19/M22 A3020 RMK CI4 SLP232
Loading
Personal Weather Stations






























Interactive Weather Map
Tropical Storm Tracking
New forecast layout! Learn more

10-Day Weather Forecast

Advertisements
Track Severe Weather on mobile